Aeroporto :
LOGIN :

Iscrizione | Disclaimer

   EN    FR    IT 

 










Sommario :    VFR   VFR Marginale   IFR   IFR Intensivo   IFR Molto Intensivo
Visibilità : 
Base nubi : 
>= 8 km
>= 3000ft
5 / 8 km
1000 / 3000 ft
1500m / 5 km
500 / 1000 ft
800 / 1500m
200 / 500 ft
< 800m
< 200 ft
Simboli :   Temporali  Nebbia  Neve Forte  Precipitazioni Forti  Vento > 20 kt
SIGMETs :   Varie  Temporali  Ghiacco  Turbolenza  Onda orograficha  Ceneri Vulcaniche






- Altitudine del aeroporto : 2077 ft
- Codice IATA : FMM


EDJA - Memmingen

ULTIMO METAR :
  • 072120Z 22011KT 9999 OVC046 06/04 Q1019

METARs OBSOLETI :
  • 072050Z 22012KT 9999 BKN046 06/04 Q1019
  • 072020Z 23010KT 9999 BKN047 06/04 Q1019
  • 071950Z 22010KT 9999 BKN041 06/03 Q1019
  • 071920Z 22009KT 9999 OVC043 05/03 Q1019
  • 071850Z 21009KT 9999 SCT044 05/03 Q1020

TAF TAF EDJA
Valido dal 07 a 18 ore il 08 a 03 ore UTC


071700Z 0718/0803 23010KT 9999 BKN035



MetMap, La meteo Aeronautica in un colpo d'occhio ! - Copyright ORBIFLY Dicembre 2007 - Disclaimer

ORBIFLY MET'MAP TEAM :

Programmazione e sviluppo : Alexandra Zaïnal
Concezione : Baudouin d'Aumeries
Aiuto per la programmazione : Marc-Olivier Méhu
Supporto tecnico e logistico : Manuel Goepfert
Aiuto per la traduzione : Arnaldo La Scala

Contatto : metmap@orbifly.com




FONTI E CREDITI :

   NOAA